sensor_id;sensor_type;location;lat;lon;timestamp;temperature;humidity
43651;DHT22;29247;50.944;5.382;2023-04-23T00:01:49;12.00;86.00
43651;DHT22;29247;50.944;5.382;2023-04-23T00:04:17;12.00;86.00
43651;DHT22;29247;50.944;5.382;2023-04-23T00:06:45;12.00;86.10
43651;DHT22;29247;50.944;5.382;2023-04-23T00:09:14;12.00;86.20
43651;DHT22;29247;50.944;5.382;2023-04-23T00:12:00;12.00;86.30
43651;DHT22;29247;50.944;5.382;2023-04-23T00:14:26;12.00;86.50
43651;DHT22;29247;50.944;5.382;2023-04-23T00:16:52;12.00;86.50
43651;DHT22;29247;50.944;5.382;2023-04-23T00:19:18;12.00;86.70
43651;DHT22;29247;50.944;5.382;2023-04-23T00:21:47;12.00;86.70
43651;DHT22;29247;50.944;5.382;2023-04-23T00:24:12;12.00;86.70
43651;DHT22;29247;50.944;5.382;2023-04-23T00:26:38;12.00;86.80
43651;DHT22;29247;50.944;5.382;2023-04-23T00:29:06;12.00;86.80
43651;DHT22;29247;50.944;5.382;2023-04-23T00:31:34;12.00;86.90
43651;DHT22;29247;50.944;5.382;2023-04-23T00:34:05;12.10;86.90
43651;DHT22;29247;50.944;5.382;2023-04-23T00:36:30;12.10;86.80
43651;DHT22;29247;50.944;5.382;2023-04-23T00:38:57;12.10;86.80
43651;DHT22;29247;50.944;5.382;2023-04-23T00:41:22;12.10;86.80
43651;DHT22;29247;50.944;5.382;2023-04-23T00:43:49;12.00;86.70
43651;DHT22;29247;50.944;5.382;2023-04-23T00:46:17;12.00;86.60
43651;DHT22;29247;50.944;5.382;2023-04-23T00:48:44;12.00;86.70
43651;DHT22;29247;50.944;5.382;2023-04-23T00:51:11;12.00;86.70
43651;DHT22;29247;50.944;5.382;2023-04-23T00:53:36;12.00;86.60
43651;DHT22;29247;50.944;5.382;2023-04-23T00:56:06;12.00;86.50
43651;DHT22;29247;50.944;5.382;2023-04-23T00:58:33;11.90;86.40
43651;DHT22;29247;50.944;5.382;2023-04-23T01:01:00;11.90;86.40
43651;DHT22;29247;50.944;5.382;2023-04-23T01:03:29;11.90;86.40
43651;DHT22;29247;50.944;5.382;2023-04-23T01:05:56;11.90;86.40
43651;DHT22;29247;50.944;5.382;2023-04-23T01:08:23;11.80;86.30
43651;DHT22;29247;50.944;5.382;2023-04-23T01:10:51;11.80;86.30
43651;DHT22;29247;50.944;5.382;2023-04-23T01:13:20;11.80;86.30
43651;DHT22;29247;50.944;5.382;2023-04-23T01:15:54;11.80;86.30
43651;DHT22;29247;50.944;5.382;2023-04-23T01:18:24;11.70;86.20
43651;DHT22;29247;50.944;5.382;2023-04-23T01:20:53;11.70;86.20
43651;DHT22;29247;50.944;5.382;2023-04-23T01:23:19;11.70;86.30
43651;DHT22;29247;50.944;5.382;2023-04-23T01:25:45;11.60;86.30
43651;DHT22;29247;50.944;5.382;2023-04-23T01:28:12;11.60;86.40
43651;DHT22;29247;50.944;5.382;2023-04-23T01:30:40;11.60;86.40
43651;DHT22;29247;50.944;5.382;2023-04-23T01:33:10;11.50;86.30
43651;DHT22;29247;50.944;5.382;2023-04-23T01:35:39;11.50;86.40
43651;DHT22;29247;50.944;5.382;2023-04-23T01:38:09;11.50;86.60
43651;DHT22;29247;50.944;5.382;2023-04-23T01:40:37;11.50;86.80
43651;DHT22;29247;50.944;5.382;2023-04-23T01:43:06;11.50;86.90
43651;DHT22;29247;50.944;5.382;2023-04-23T01:45:32;11.50;87.20
43651;DHT22;29247;50.944;5.382;2023-04-23T01:48:03;11.50;87.30
43651;DHT22;29247;50.944;5.382;2023-04-23T01:50:34;11.50;88.20
43651;DHT22;29247;50.944;5.382;2023-04-23T01:52:59;11.50;87.60
43651;DHT22;29247;50.944;5.382;2023-04-23T01:55:25;11.50;87.50
43651;DHT22;29247;50.944;5.382;2023-04-23T01:57:51;11.50;87.60
43651;DHT22;29247;50.944;5.382;2023-04-23T02:00:17;11.50;87.70
43651;DHT22;29247;50.944;5.382;2023-04-23T02:02:43;11.50;87.90
43651;DHT22;29247;50.944;5.382;2023-04-23T02:05:15;11.60;88.00
43651;DHT22;29247;50.944;5.382;2023-04-23T02:07:45;11.60;88.00
43651;DHT22;29247;50.944;5.382;2023-04-23T02:10:11;11.60;88.00
43651;DHT22;29247;50.944;5.382;2023-04-23T02:12:37;11.60;88.10
43651;DHT22;29247;50.944;5.382;2023-04-23T02:15:04;11.60;88.20
43651;DHT22;29247;50.944;5.382;2023-04-23T02:17:31;11.60;88.20
43651;DHT22;29247;50.944;5.382;2023-04-23T02:20:00;11.70;88.30
43651;DHT22;29247;50.944;5.382;2023-04-23T02:22:26;11.70;88.40
43651;DHT22;29247;50.944;5.382;2023-04-23T02:24:55;11.70;88.40
43651;DHT22;29247;50.944;5.382;2023-04-23T02:27:21;11.70;88.40
43651;DHT22;29247;50.944;5.382;2023-04-23T02:29:49;11.70;89.20
43651;DHT22;29247;50.944;5.382;2023-04-23T02:32:15;11.80;88.50
43651;DHT22;29247;50.944;5.382;2023-04-23T02:34:41;11.80;88.50
43651;DHT22;29247;50.944;5.382;2023-04-23T02:37:07;11.80;88.40
43651;DHT22;29247;50.944;5.382;2023-04-23T02:39:33;11.80;88.40
43651;DHT22;29247;50.944;5.382;2023-04-23T02:42:03;11.80;88.40
43651;DHT22;29247;50.944;5.382;2023-04-23T02:44:29;11.80;88.30
43651;DHT22;29247;50.944;5.382;2023-04-23T02:46:54;11.80;88.20
43651;DHT22;29247;50.944;5.382;2023-04-23T02:49:23;11.80;88.20
43651;DHT22;29247;50.944;5.382;2023-04-23T02:51:51;11.80;88.20
43651;DHT22;29247;50.944;5.382;2023-04-23T02:54:17;11.80;88.30
43651;DHT22;29247;50.944;5.382;2023-04-23T02:56:51;11.80;88.30
43651;DHT22;29247;50.944;5.382;2023-04-23T02:59:19;11.80;88.30
43651;DHT22;29247;50.944;5.382;2023-04-23T03:01:45;11.80;88.20
43651;DHT22;29247;50.944;5.382;2023-04-23T03:04:11;11.80;88.10
43651;DHT22;29247;50.944;5.382;2023-04-23T03:06:36;11.80;88.00
43651;DHT22;29247;50.944;5.382;2023-04-23T03:09:07;11.80;87.90
43651;DHT22;29247;50.944;5.382;2023-04-23T03:11:35;11.70;87.90
43651;DHT22;29247;50.944;5.382;2023-04-23T03:14:01;11.70;87.90
43651;DHT22;29247;50.944;5.382;2023-04-23T03:16:30;11.70;88.00
43651;DHT22;29247;50.944;5.382;2023-04-23T03:18:56;11.70;88.10
43651;DHT22;29247;50.944;5.382;2023-04-23T03:21:22;11.70;88.30
43651;DHT22;29247;50.944;5.382;2023-04-23T03:23:48;11.70;88.50
43651;DHT22;29247;50.944;5.382;2023-04-23T03:26:14;11.70;88.50
43651;DHT22;29247;50.944;5.382;2023-04-23T03:28:43;11.70;88.70
43651;DHT22;29247;50.944;5.382;2023-04-23T03:31:09;11.70;88.70
43651;DHT22;29247;50.944;5.382;2023-04-23T03:33:39;11.70;88.70
43651;DHT22;29247;50.944;5.382;2023-04-23T03:36:07;11.70;88.70
43651;DHT22;29247;50.944;5.382;2023-04-23T03:38:34;11.70;88.60
43651;DHT22;29247;50.944;5.382;2023-04-23T03:40:59;11.70;88.70
43651;DHT22;29247;50.944;5.382;2023-04-23T03:43:25;11.70;88.70
43651;DHT22;29247;50.944;5.382;2023-04-23T03:46:21;11.70;88.80
43651;DHT22;29247;50.944;5.382;2023-04-23T03:48:47;11.70;88.80
43651;DHT22;29247;50.944;5.382;2023-04-23T03:51:13;11.70;88.70
43651;DHT22;29247;50.944;5.382;2023-04-23T03:53:41;11.80;88.80
43651;DHT22;29247;50.944;5.382;2023-04-23T03:56:07;11.80;88.80
43651;DHT22;29247;50.944;5.382;2023-04-23T03:58:32;11.80;88.90
43651;DHT22;29247;50.944;5.382;2023-04-23T04:00:58;11.80;89.00
43651;DHT22;29247;50.944;5.382;2023-04-23T04:03:26;11.70;88.90
43651;DHT22;29247;50.944;5.382;2023-04-23T04:05:59;11.70;89.00
43651;DHT22;29247;50.944;5.382;2023-04-23T04:08:25;11.80;89.10
43651;DHT22;29247;50.944;5.382;2023-04-23T04:10:51;11.80;89.10
43651;DHT22;29247;50.944;5.382;2023-04-23T04:13:48;11.80;89.10
43651;DHT22;29247;50.944;5.382;2023-04-23T04:16:16;11.80;89.20
43651;DHT22;29247;50.944;5.382;2023-04-23T04:18:44;11.80;89.00
43651;DHT22;29247;50.944;5.382;2023-04-23T04:21:10;11.80;89.00
43651;DHT22;29247;50.944;5.382;2023-04-23T04:23:35;11.80;89.10
43651;DHT22;29247;50.944;5.382;2023-04-23T04:26:04;11.80;89.20
43651;DHT22;29247;50.944;5.382;2023-04-23T04:28:30;11.80;89.30
43651;DHT22;29247;50.944;5.382;2023-04-23T04:31:00;11.80;89.30
43651;DHT22;29247;50.944;5.382;2023-04-23T04:33:26;11.80;89.30
43651;DHT22;29247;50.944;5.382;2023-04-23T04:35:54;11.80;89.40
43651;DHT22;29247;50.944;5.382;2023-04-23T04:38:21;11.80;89.30
43651;DHT22;29247;50.944;5.382;2023-04-23T04:40:46;11.80;89.30
43651;DHT22;29247;50.944;5.382;2023-04-23T04:43:16;11.80;89.20
43651;DHT22;29247;50.944;5.382;2023-04-23T04:45:44;11.80;89.20
43651;DHT22;29247;50.944;5.382;2023-04-23T04:48:09;11.80;89.30
43651;DHT22;29247;50.944;5.382;2023-04-23T04:50:35;11.80;89.30
43651;DHT22;29247;50.944;5.382;2023-04-23T04:53:03;11.80;89.40
43651;DHT22;29247;50.944;5.382;2023-04-23T04:55:31;11.80;89.50
43651;DHT22;29247;50.944;5.382;2023-04-23T04:57:57;11.80;89.70
43651;DHT22;29247;50.944;5.382;2023-04-23T05:00:27;11.80;89.70
43651;DHT22;29247;50.944;5.382;2023-04-23T05:02:57;11.80;89.70
43651;DHT22;29247;50.944;5.382;2023-04-23T05:05:24;11.90;89.80
43651;DHT22;29247;50.944;5.382;2023-04-23T05:07:55;11.80;89.80
43651;DHT22;29247;50.944;5.382;2023-04-23T05:10:23;11.90;89.90
43651;DHT22;29247;50.944;5.382;2023-04-23T05:12:50;11.90;90.00
43651;DHT22;29247;50.944;5.382;2023-04-23T05:15:16;11.90;90.00
43651;DHT22;29247;50.944;5.382;2023-04-23T05:17:42;11.90;90.10
43651;DHT22;29247;50.944;5.382;2023-04-23T05:20:11;11.90;90.10
43651;DHT22;29247;50.944;5.382;2023-04-23T05:22:38;12.00;90.10
43651;DHT22;29247;50.944;5.382;2023-04-23T05:25:04;12.00;90.20
43651;DHT22;29247;50.944;5.382;2023-04-23T05:27:30;12.00;90.20
43651;DHT22;29247;50.944;5.382;2023-04-23T05:29:58;12.10;90.20
43651;DHT22;29247;50.944;5.382;2023-04-23T05:32:24;12.10;90.20
43651;DHT22;29247;50.944;5.382;2023-04-23T05:34:53;12.20;90.40
43651;DHT22;29247;50.944;5.382;2023-04-23T05:37:24;12.20;90.50
43651;DHT22;29247;50.944;5.382;2023-04-23T05:39:52;12.30;90.60
43651;DHT22;29247;50.944;5.382;2023-04-23T05:42:18;12.40;90.50
43651;DHT22;29247;50.944;5.382;2023-04-23T05:44:46;12.40;90.80
43651;DHT22;29247;50.944;5.382;2023-04-23T05:47:13;12.40;90.50
43651;DHT22;29247;50.944;5.382;2023-04-23T05:49:39;12.50;90.80
43651;DHT22;29247;50.944;5.382;2023-04-23T05:52:07;12.50;90.40
43651;DHT22;29247;50.944;5.382;2023-04-23T05:54:32;12.50;90.30
43651;DHT22;29247;50.944;5.382;2023-04-23T05:56:58;12.50;90.20
43651;DHT22;29247;50.944;5.382;2023-04-23T05:59:26;12.60;90.20
43651;DHT22;29247;50.944;5.382;2023-04-23T06:01:54;12.60;90.10
43651;DHT22;29247;50.944;5.382;2023-04-23T06:04:22;12.60;90.10
43651;DHT22;29247;50.944;5.382;2023-04-23T06:06:48;12.60;90.10
43651;DHT22;29247;50.944;5.382;2023-04-23T06:09:16;12.60;90.10
43651;DHT22;29247;50.944;5.382;2023-04-23T06:11:46;12.60;90.00
43651;DHT22;29247;50.944;5.382;2023-04-23T06:14:17;12.70;90.00
43651;DHT22;29247;50.944;5.382;2023-04-23T06:16:42;12.70;90.00
43651;DHT22;29247;50.944;5.382;2023-04-23T06:19:08;12.70;90.00
43651;DHT22;29247;50.944;5.382;2023-04-23T06:21:34;12.70;90.10
43651;DHT22;29247;50.944;5.382;2023-04-23T06:24:02;12.70;90.00
43651;DHT22;29247;50.944;5.382;2023-04-23T06:26:28;12.80;90.00
43651;DHT22;29247;50.944;5.382;2023-04-23T06:28:56;12.80;90.00
43651;DHT22;29247;50.944;5.382;2023-04-23T06:31:26;12.80;90.00
43651;DHT22;29247;50.944;5.382;2023-04-23T06:33:52;12.90;90.00
43651;DHT22;29247;50.944;5.382;2023-04-23T06:36:17;12.90;90.00
43651;DHT22;29247;50.944;5.382;2023-04-23T06:38:45;12.90;90.00
43651;DHT22;29247;50.944;5.382;2023-04-23T06:41:14;13.00;90.00
43651;DHT22;29247;50.944;5.382;2023-04-23T06:43:42;13.00;90.00
43651;DHT22;29247;50.944;5.382;2023-04-23T06:46:08;13.10;90.00
43651;DHT22;29247;50.944;5.382;2023-04-23T06:48:34;13.10;90.00
43651;DHT22;29247;50.944;5.382;2023-04-23T06:50:59;13.20;90.00
43651;DHT22;29247;50.944;5.382;2023-04-23T06:53:26;13.20;90.00
43651;DHT22;29247;50.944;5.382;2023-04-23T06:55:53;13.30;90.00
43651;DHT22;29247;50.944;5.382;2023-04-23T06:58:19;13.30;90.00
43651;DHT22;29247;50.944;5.382;2023-04-23T07:00:52;13.40;90.00
43651;DHT22;29247;50.944;5.382;2023-04-23T07:03:18;13.40;90.00
43651;DHT22;29247;50.944;5.382;2023-04-23T07:05:44;13.50;90.00
43651;DHT22;29247;50.944;5.382;2023-04-23T07:08:10;13.60;90.00
43651;DHT22;29247;50.944;5.382;2023-04-23T07:10:35;13.60;89.80
43651;DHT22;29247;50.944;5.382;2023-04-23T07:13:01;13.70;89.60
43651;DHT22;29247;50.944;5.382;2023-04-23T07:15:27;13.80;89.70
43651;DHT22;29247;50.944;5.382;2023-04-23T07:17:54;13.90;90.00
43651;DHT22;29247;50.944;5.382;2023-04-23T07:20:20;14.10;90.20
43651;DHT22;29247;50.944;5.382;2023-04-23T07:22:46;14.30;90.40
43651;DHT22;29247;50.944;5.382;2023-04-23T07:25:12;14.50;90.60
43651;DHT22;29247;50.944;5.382;2023-04-23T07:27:38;14.80;90.50
43651;DHT22;29247;50.944;5.382;2023-04-23T07:30:04;15.10;90.20
43651;DHT22;29247;50.944;5.382;2023-04-23T07:32:30;15.40;88.80
43651;DHT22;29247;50.944;5.382;2023-04-23T07:35:00;15.60;87.80
43651;DHT22;29247;50.944;5.382;2023-04-23T07:37:26;15.80;87.00
43651;DHT22;29247;50.944;5.382;2023-04-23T07:39:52;16.20;86.10
43651;DHT22;29247;50.944;5.382;2023-04-23T07:42:20;16.60;85.20
43651;DHT22;29247;50.944;5.382;2023-04-23T07:44:48;17.10;84.20
43651;DHT22;29247;50.944;5.382;2023-04-23T07:47:14;17.60;82.60
43651;DHT22;29247;50.944;5.382;2023-04-23T07:49:40;18.10;80.20
43651;DHT22;29247;50.944;5.382;2023-04-23T07:52:05;18.50;78.70
43651;DHT22;29247;50.944;5.382;2023-04-23T07:54:31;18.90;76.80
43651;DHT22;29247;50.944;5.382;2023-04-23T07:56:56;19.30;75.30
43651;DHT22;29247;50.944;5.382;2023-04-23T07:59:22;19.50;74.90
43651;DHT22;29247;50.944;5.382;2023-04-23T08:01:51;19.80;72.80
43651;DHT22;29247;50.944;5.382;2023-04-23T08:04:19;19.90;70.30
43651;DHT22;29247;50.944;5.382;2023-04-23T08:06:47;20.10;69.90
43651;DHT22;29247;50.944;5.382;2023-04-23T08:09:13;20.20;68.70
43651;DHT22;29247;50.944;5.382;2023-04-23T08:11:40;20.40;68.10
43651;DHT22;29247;50.944;5.382;2023-04-23T08:14:06;20.50;67.50
43651;DHT22;29247;50.944;5.382;2023-04-23T08:16:32;20.60;66.40
43651;DHT22;29247;50.944;5.382;2023-04-23T08:19:00;20.70;65.20
43651;DHT22;29247;50.944;5.382;2023-04-23T08:21:26;20.80;65.20
43651;DHT22;29247;50.944;5.382;2023-04-23T08:23:52;20.80;65.00
43651;DHT22;29247;50.944;5.382;2023-04-23T08:26:17;20.90;64.20
43651;DHT22;29247;50.944;5.382;2023-04-23T08:28:44;21.00;63.60
43651;DHT22;29247;50.944;5.382;2023-04-23T08:31:13;21.00;63.10
43651;DHT22;29247;50.944;5.382;2023-04-23T08:33:39;21.00;62.80
43651;DHT22;29247;50.944;5.382;2023-04-23T08:36:05;21.00;62.30
43651;DHT22;29247;50.944;5.382;2023-04-23T08:38:33;20.90;62.50
43651;DHT22;29247;50.944;5.382;2023-04-23T08:41:00;20.90;62.70
43651;DHT22;29247;50.944;5.382;2023-04-23T08:43:37;20.80;62.10
43651;DHT22;29247;50.944;5.382;2023-04-23T08:46:11;20.80;63.00
43651;DHT22;29247;50.944;5.382;2023-04-23T08:48:39;20.80;63.20
43651;DHT22;29247;50.944;5.382;2023-04-23T08:51:08;20.80;63.70
43651;DHT22;29247;50.944;5.382;2023-04-23T08:53:36;20.70;63.40
43651;DHT22;29247;50.944;5.382;2023-04-23T08:56:07;20.60;62.60
43651;DHT22;29247;50.944;5.382;2023-04-23T08:58:33;20.50;62.30
43651;DHT22;29247;50.944;5.382;2023-04-23T09:01:00;20.40;62.50
43651;DHT22;29247;50.944;5.382;2023-04-23T09:03:27;20.20;62.00
43651;DHT22;29247;50.944;5.382;2023-04-23T09:05:53;20.00;62.10
43651;DHT22;29247;50.944;5.382;2023-04-23T09:08:21;19.90;62.90
43651;DHT22;29247;50.944;5.382;2023-04-23T09:10:49;19.80;63.40
43651;DHT22;29247;50.944;5.382;2023-04-23T09:13:15;19.70;63.30
43651;DHT22;29247;50.944;5.382;2023-04-23T09:15:41;19.60;63.00
43651;DHT22;29247;50.944;5.382;2023-04-23T09:18:10;19.50;62.80
43651;DHT22;29247;50.944;5.382;2023-04-23T09:20:37;19.40;63.20
43651;DHT22;29247;50.944;5.382;2023-04-23T09:23:06;19.30;63.80
43651;DHT22;29247;50.944;5.382;2023-04-23T09:25:32;19.20;63.70
43651;DHT22;29247;50.944;5.382;2023-04-23T09:27:59;19.10;64.10
43651;DHT22;29247;50.944;5.382;2023-04-23T09:30:28;19.00;64.20
43651;DHT22;29247;50.944;5.382;2023-04-23T09:32:56;18.90;64.50
43651;DHT22;29247;50.944;5.382;2023-04-23T09:35:21;18.90;64.80
43651;DHT22;29247;50.944;5.382;2023-04-23T09:37:48;18.80;65.10
43651;DHT22;29247;50.944;5.382;2023-04-23T09:40:17;18.90;66.30
43651;DHT22;29247;50.944;5.382;2023-04-23T09:42:51;18.90;66.50
43651;DHT22;29247;50.944;5.382;2023-04-23T09:45:19;19.00;66.50
43651;DHT22;29247;50.944;5.382;2023-04-23T09:47:55;19.10;66.00
43651;DHT22;29247;50.944;5.382;2023-04-23T09:50:34;19.20;65.90
43651;DHT22;29247;50.944;5.382;2023-04-23T09:53:01;19.30;65.80
43651;DHT22;29247;50.944;5.382;2023-04-23T09:55:37;19.30;65.60
43651;DHT22;29247;50.944;5.382;2023-04-23T09:58:11;19.40;64.60
43651;DHT22;29247;50.944;5.382;2023-04-23T10:00:38;19.40;64.30
43651;DHT22;29247;50.944;5.382;2023-04-23T10:03:06;19.40;64.00
43651;DHT22;29247;50.944;5.382;2023-04-23T10:05:41;19.40;63.70
43651;DHT22;29247;50.944;5.382;2023-04-23T10:08:07;19.40;63.50
43651;DHT22;29247;50.944;5.382;2023-04-23T10:10:34;19.40;63.70
43651;DHT22;29247;50.944;5.382;2023-04-23T10:13:01;19.40;62.90
43651;DHT22;29247;50.944;5.382;2023-04-23T10:15:27;19.40;63.00
43651;DHT22;29247;50.944;5.382;2023-04-23T10:17:56;19.50;63.00
43651;DHT22;29247;50.944;5.382;2023-04-23T10:20:24;19.60;62.70
43651;DHT22;29247;50.944;5.382;2023-04-23T10:22:53;19.60;62.30
43651;DHT22;29247;50.944;5.382;2023-04-23T10:25:20;19.70;61.70
43651;DHT22;29247;50.944;5.382;2023-04-23T10:27:48;19.80;61.70
43651;DHT22;29247;50.944;5.382;2023-04-23T10:30:17;19.80;61.80
43651;DHT22;29247;50.944;5.382;2023-04-23T10:32:44;19.90;61.20
43651;DHT22;29247;50.944;5.382;2023-04-23T10:35:12;20.00;61.20
43651;DHT22;29247;50.944;5.382;2023-04-23T10:37:39;20.00;60.50
43651;DHT22;29247;50.944;5.382;2023-04-23T10:40:08;20.10;59.90
43651;DHT22;29247;50.944;5.382;2023-04-23T10:42:38;20.00;59.40
43651;DHT22;29247;50.944;5.382;2023-04-23T10:45:18;20.10;59.80
43651;DHT22;29247;50.944;5.382;2023-04-23T10:47:46;20.10;59.70
43651;DHT22;29247;50.944;5.382;2023-04-23T10:50:26;20.10;59.20
43651;DHT22;29247;50.944;5.382;2023-04-23T10:52:53;20.20;59.20
43651;DHT22;29247;50.944;5.382;2023-04-23T10:55:26;20.10;58.80
43651;DHT22;29247;50.944;5.382;2023-04-23T11:00:24;20.10;58.90
43651;DHT22;29247;50.944;5.382;2023-04-23T11:02:49;20.00;58.90
43651;DHT22;29247;50.944;5.382;2023-04-23T11:05:17;20.00;59.20
43651;DHT22;29247;50.944;5.382;2023-04-23T11:08:12;20.00;59.40
43651;DHT22;29247;50.944;5.382;2023-04-23T11:10:54;20.00;59.30
43651;DHT22;29247;50.944;5.382;2023-04-23T11:13:28;20.10;59.00
43651;DHT22;29247;50.944;5.382;2023-04-23T11:19:07;20.00;58.40
43651;DHT22;29247;50.944;5.382;2023-04-23T11:22:15;20.10;58.80
43651;DHT22;29247;50.944;5.382;2023-04-23T11:24:42;20.20;58.70
43651;DHT22;29247;50.944;5.382;2023-04-23T11:27:10;20.30;58.10
43651;DHT22;29247;50.944;5.382;2023-04-23T11:29:39;20.40;57.60
43651;DHT22;29247;50.944;5.382;2023-04-23T11:32:08;20.50;57.20
43651;DHT22;29247;50.944;5.382;2023-04-23T11:34:59;20.60;56.70
43651;DHT22;29247;50.944;5.382;2023-04-23T11:37:31;20.60;56.70
43651;DHT22;29247;50.944;5.382;2023-04-23T11:39:56;20.70;57.00
43651;DHT22;29247;50.944;5.382;2023-04-23T11:42:25;20.70;56.80
43651;DHT22;29247;50.944;5.382;2023-04-23T11:44:52;20.80;55.40
43651;DHT22;29247;50.944;5.382;2023-04-23T11:47:21;20.90;54.80
43651;DHT22;29247;50.944;5.382;2023-04-23T11:49:50;20.90;54.40
43651;DHT22;29247;50.944;5.382;2023-04-23T11:52:15;20.90;54.10
43651;DHT22;29247;50.944;5.382;2023-04-23T11:54:41;20.90;54.60
43651;DHT22;29247;50.944;5.382;2023-04-23T11:57:10;20.90;54.60
43651;DHT22;29247;50.944;5.382;2023-04-23T11:59:38;20.80;54.40
43651;DHT22;29247;50.944;5.382;2023-04-23T12:02:06;20.80;54.50
43651;DHT22;29247;50.944;5.382;2023-04-23T12:04:34;20.80;54.60
43651;DHT22;29247;50.944;5.382;2023-04-23T12:07:00;20.70;54.10
43651;DHT22;29247;50.944;5.382;2023-04-23T12:09:27;20.60;54.20
43651;DHT22;29247;50.944;5.382;2023-04-23T12:11:54;20.50;54.60
43651;DHT22;29247;50.944;5.382;2023-04-23T12:14:26;20.50;55.00
43651;DHT22;29247;50.944;5.382;2023-04-23T12:16:56;20.40;55.20
43651;DHT22;29247;50.944;5.382;2023-04-23T12:19:28;20.30;55.20
43651;DHT22;29247;50.944;5.382;2023-04-23T12:21:54;20.30;55.10
43651;DHT22;29247;50.944;5.382;2023-04-23T12:24:26;20.20;55.10
43651;DHT22;29247;50.944;5.382;2023-04-23T12:26:56;20.10;54.90
43651;DHT22;29247;50.944;5.382;2023-04-23T12:29:25;20.00;54.70
43651;DHT22;29247;50.944;5.382;2023-04-23T12:31:52;20.00;54.70
43651;DHT22;29247;50.944;5.382;2023-04-23T12:34:20;19.90;55.10
43651;DHT22;29247;50.944;5.382;2023-04-23T12:36:51;19.90;55.30
43651;DHT22;29247;50.944;5.382;2023-04-23T12:42:05;19.90;55.70
43651;DHT22;29247;50.944;5.382;2023-04-23T12:44:35;19.80;55.60
43651;DHT22;29247;50.944;5.382;2023-04-23T12:47:08;19.80;55.60
43651;DHT22;29247;50.944;5.382;2023-04-23T12:49:39;19.70;55.90
43651;DHT22;29247;50.944;5.382;2023-04-23T12:52:05;19.80;56.10
43651;DHT22;29247;50.944;5.382;2023-04-23T12:54:35;19.80;55.90
43651;DHT22;29247;50.944;5.382;2023-04-23T12:57:09;19.80;55.70
43651;DHT22;29247;50.944;5.382;2023-04-23T12:59:35;19.80;55.60
43651;DHT22;29247;50.944;5.382;2023-04-23T13:02:02;19.70;55.40
43651;DHT22;29247;50.944;5.382;2023-04-23T13:04:32;19.60;55.40
43651;DHT22;29247;50.944;5.382;2023-04-23T13:07:01;19.50;55.30
43651;DHT22;29247;50.944;5.382;2023-04-23T13:09:29;19.50;55.50
43651;DHT22;29247;50.944;5.382;2023-04-23T13:11:55;19.40;55.50
43651;DHT22;29247;50.944;5.382;2023-04-23T13:14:21;19.20;56.40
43651;DHT22;29247;50.944;5.382;2023-04-23T13:16:47;19.10;56.90
43651;DHT22;29247;50.944;5.382;2023-04-23T13:19:13;19.00;57.50
43651;DHT22;29247;50.944;5.382;2023-04-23T13:21:40;18.90;58.10
43651;DHT22;29247;50.944;5.382;2023-04-23T13:24:06;18.80;58.60
43651;DHT22;29247;50.944;5.382;2023-04-23T13:26:34;18.70;59.10
43651;DHT22;29247;50.944;5.382;2023-04-23T13:29:01;18.70;59.40
43651;DHT22;29247;50.944;5.382;2023-04-23T13:31:28;18.60;59.70
43651;DHT22;29247;50.944;5.382;2023-04-23T13:33:54;18.60;60.40
43651;DHT22;29247;50.944;5.382;2023-04-23T13:36:23;18.50;61.00
43651;DHT22;29247;50.944;5.382;2023-04-23T13:38:54;18.50;61.50
43651;DHT22;29247;50.944;5.382;2023-04-23T13:41:23;18.40;61.80
43651;DHT22;29247;50.944;5.382;2023-04-23T13:43:49;18.40;61.90
43651;DHT22;29247;50.944;5.382;2023-04-23T13:46:15;18.40;62.40
43651;DHT22;29247;50.944;5.382;2023-04-23T13:48:41;18.40;62.80
43651;DHT22;29247;50.944;5.382;2023-04-23T13:51:07;18.30;62.50
43651;DHT22;29247;50.944;5.382;2023-04-23T13:53:34;18.30;62.20
43651;DHT22;29247;50.944;5.382;2023-04-23T13:56:00;18.20;61.80
43651;DHT22;29247;50.944;5.382;2023-04-23T13:58:26;18.20;62.10
43651;DHT22;29247;50.944;5.382;2023-04-23T14:00:52;18.20;62.40
43651;DHT22;29247;50.944;5.382;2023-04-23T14:03:18;18.20;62.90
43651;DHT22;29247;50.944;5.382;2023-04-23T14:05:44;18.10;63.20
43651;DHT22;29247;50.944;5.382;2023-04-23T14:08:10;18.20;63.40
43651;DHT22;29247;50.944;5.382;2023-04-23T14:10:37;18.10;63.50
43651;DHT22;29247;50.944;5.382;2023-04-23T14:13:03;18.10;63.60
43651;DHT22;29247;50.944;5.382;2023-04-23T14:15:31;18.10;63.90
43651;DHT22;29247;50.944;5.382;2023-04-23T14:17:57;18.00;64.50
43651;DHT22;29247;50.944;5.382;2023-04-23T14:20:24;18.00;65.30
43651;DHT22;29247;50.944;5.382;2023-04-23T14:23:00;18.00;65.50
43651;DHT22;29247;50.944;5.382;2023-04-23T14:25:34;18.00;66.10
43651;DHT22;29247;50.944;5.382;2023-04-23T14:28:02;17.90;66.60
43651;DHT22;29247;50.944;5.382;2023-04-23T14:30:34;17.90;67.20
43651;DHT22;29247;50.944;5.382;2023-04-23T14:33:00;17.80;67.80
43651;DHT22;29247;50.944;5.382;2023-04-23T14:35:25;17.80;69.00
43651;DHT22;29247;50.944;5.382;2023-04-23T14:37:52;17.70;68.60
43651;DHT22;29247;50.944;5.382;2023-04-23T14:40:19;17.70;69.30
43651;DHT22;29247;50.944;5.382;2023-04-23T14:42:46;17.70;69.90
43651;DHT22;29247;50.944;5.382;2023-04-23T14:45:13;17.70;70.40
43651;DHT22;29247;50.944;5.382;2023-04-23T14:47:39;17.70;70.90
43651;DHT22;29247;50.944;5.382;2023-04-23T14:50:11;17.70;71.30
43651;DHT22;29247;50.944;5.382;2023-04-23T14:52:39;17.60;71.60
43651;DHT22;29247;50.944;5.382;2023-04-23T14:55:05;17.70;71.90
43651;DHT22;29247;50.944;5.382;2023-04-23T14:57:33;17.70;71.90
43651;DHT22;29247;50.944;5.382;2023-04-23T15:00:00;17.60;71.90
43651;DHT22;29247;50.944;5.382;2023-04-23T15:02:26;17.60;72.10
43651;DHT22;29247;50.944;5.382;2023-04-23T15:04:52;17.60;72.20
43651;DHT22;29247;50.944;5.382;2023-04-23T15:07:22;17.60;72.50
43651;DHT22;29247;50.944;5.382;2023-04-23T15:09:48;17.50;72.50
43651;DHT22;29247;50.944;5.382;2023-04-23T15:15:25;17.50;72.60
43651;DHT22;29247;50.944;5.382;2023-04-23T15:17:52;17.40;72.60
43651;DHT22;29247;50.944;5.382;2023-04-23T15:20:18;17.40;72.70
43651;DHT22;29247;50.944;5.382;2023-04-23T15:22:46;17.40;73.00
43651;DHT22;29247;50.944;5.382;2023-04-23T15:25:13;17.40;73.20
43651;DHT22;29247;50.944;5.382;2023-04-23T15:27:38;17.30;73.20
43651;DHT22;29247;50.944;5.382;2023-04-23T15:30:05;17.30;73.30
43651;DHT22;29247;50.944;5.382;2023-04-23T15:32:31;17.30;73.50
43651;DHT22;29247;50.944;5.382;2023-04-23T15:34:57;17.30;73.50
43651;DHT22;29247;50.944;5.382;2023-04-23T15:37:25;17.30;73.50
43651;DHT22;29247;50.944;5.382;2023-04-23T15:39:55;17.40;73.60
43651;DHT22;29247;50.944;5.382;2023-04-23T15:42:21;17.40;73.70
43651;DHT22;29247;50.944;5.382;2023-04-23T15:44:52;17.40;73.60
43651;DHT22;29247;50.944;5.382;2023-04-23T15:47:21;17.40;73.40